Time;durP1;ratioP1;P1;durP2;ratioP2;P2;SDS_P1;SDS_P2;PMS_P1;PMS_P2;Temp;Humidity;BMP_temperature;BMP_pressure;BME280_temperature;BME280_humidity;BME280_pressure;Samples;Min_cycle;Max_cycle;Signal;HPM_P1;HPM_P2
2022/12/16 00:01:23;;;;;;;;;;;;;;;0.52;99.75;98943.97;4967510;28;19918;-71
2022/12/16 00:03:50;;;;;;;;;;;;;;;0.53;99.58;98941.34;4932725;29;19915;-73
2022/12/16 00:06:15;;;;;;;;;;;;;;;0.49;100.00;98950.13;4937047;29;19973;-71
2022/12/16 00:08:41;;;;;;;;;;;;;;;0.48;100.00;98947.53;4930608;29;20379;-71
2022/12/16 00:11:07;;;;;;;;;;;;;;;0.52;100.00;98957.06;4937561;29;19917;-71
2022/12/16 00:13:33;;;;;;;;;;;;;;;0.54;100.00;98957.91;4935587;29;19966;-71
2022/12/16 00:15:59;;;;;;;;;;;;;;;0.47;100.00;98966.69;4921546;29;19954;-71
2022/12/16 00:18:24;;;;;;;;;;;;;;;0.45;100.00;98971.06;4937410;29;19923;-71
2022/12/16 00:20:53;;;;;;;;;;;;;;;0.39;100.00;98973.75;4935807;29;19915;-70
2022/12/16 00:23:19;;;;;;;;;;;;;;;0.43;100.00;98986.78;4936574;29;19911;-70
2022/12/16 00:25:45;;;;;;;;;;;;;;;0.49;100.00;98985.88;4934803;29;19929;-71
2022/12/16 00:28:11;;;;;;;;;;;;;;;0.50;100.00;98990.22;4938927;29;19997;-70
2022/12/16 00:30:36;;;;;;;;;;;;;;;0.43;100.00;98992.00;4935451;29;19938;-71
2022/12/16 00:33:03;;;;;;;;;;;;;;;0.49;100.00;98997.22;4928063;29;20514;-70
2022/12/16 00:35:29;;;;;;;;;;;;;;;0.56;100.00;99003.25;4918619;29;19915;-71
2022/12/16 00:37:54;;;;;;;;;;;;;;;0.58;100.00;98998.84;4953211;28;20370;-70
2022/12/16 00:40:20;;;;;;;;;;;;;;;0.55;100.00;99001.50;4924629;29;19914;-70
2022/12/16 00:42:45;;;;;;;;;;;;;;;0.58;100.00;99014.53;4934217;29;19910;-71
2022/12/16 00:45:10;;;;;;;;;;;;;;;0.58;100.00;99012.81;4934645;29;19917;-70
2022/12/16 00:47:35;;;;;;;;;;;;;;;0.51;100.00;99018.13;4937048;29;19919;-71
2022/12/16 00:50:01;;;;;;;;;;;;;;;0.48;100.00;99016.38;4933561;29;19915;-70
2022/12/16 00:52:26;;;;;;;;;;;;;;;0.52;100.00;99019.84;4937010;29;19919;-71
2022/12/16 00:54:51;;;;;;;;;;;;;;;0.48;100.00;99020.78;4935093;29;19934;-70
2022/12/16 00:57:17;;;;;;;;;;;;;;;0.49;100.00;99023.38;4933860;29;20267;-70
2022/12/16 00:59:42;;;;;;;;;;;;;;;0.49;100.00;99022.50;4935796;29;20012;-70
2022/12/16 01:02:09;;;;;;;;;;;;;;;0.50;100.00;99021.59;4937632;29;19974;-70
2022/12/16 01:04:35;;;;;;;;;;;;;;;0.50;100.00;99022.47;4966219;28;20001;-70
2022/12/16 01:07:00;;;;;;;;;;;;;;;0.56;100.00;99024.19;4935265;29;19997;-70
2022/12/16 01:09:25;;;;;;;;;;;;;;;0.59;100.00;99013.69;4934052;29;19915;-71
2022/12/16 01:11:50;;;;;;;;;;;;;;;0.60;100.00;99020.63;4937834;29;19974;-72
2022/12/16 01:14:16;;;;;;;;;;;;;;;0.48;100.00;99026.84;4935751;29;20470;-72
2022/12/16 01:16:41;;;;;;;;;;;;;;;0.49;100.00;99028.59;4967927;28;19922;-72
2022/12/16 01:19:06;;;;;;;;;;;;;;;0.57;100.00;99028.50;4959783;28;19911;-72
2022/12/16 01:21:31;;;;;;;;;;;;;;;0.56;100.00;99037.25;4921809;29;19942;-72
2022/12/16 01:23:57;;;;;;;;;;;;;;;0.55;100.00;99038.13;4935131;29;19918;-72
2022/12/16 01:26:22;;;;;;;;;;;;;;;0.48;100.00;99044.31;4934211;29;19914;-71
2022/12/16 01:28:48;;;;;;;;;;;;;;;0.38;100.00;99040.88;4946042;29;19923;-72
2022/12/16 01:31:14;;;;;;;;;;;;;;;0.40;100.00;99040.84;4952339;29;19911;-72
2022/12/16 01:33:40;;;;;;;;;;;;;;;0.47;100.00;99047.78;4947549;29;20001;-72
2022/12/16 01:36:06;;;;;;;;;;;;;;;0.45;100.00;99054.75;4933186;29;20009;-72
2022/12/16 01:38:31;;;;;;;;;;;;;;;0.40;100.00;99060.03;4933331;29;20323;-72
2022/12/16 01:40:57;;;;;;;;;;;;;;;0.47;100.00;99060.88;4937312;29;19918;-72
2022/12/16 01:43:24;;;;;;;;;;;;;;;0.44;100.00;99066.13;4934818;29;20382;-73
2022/12/16 01:45:50;;;;;;;;;;;;;;;0.46;100.00;99069.59;4936293;29;19942;-72
2022/12/16 01:48:34;;;;;;;;;;;;;;;0.42;100.00;99071.38;4954278;29;19949;-72
2022/12/16 01:51:26;;;;;;;;;;;;;;;0.36;100.00;99067.94;4954066;29;19918;-72
2022/12/16 01:53:53;;;;;;;;;;;;;;;0.39;100.00;99073.13;4917280;29;20655;-72
2022/12/16 01:56:22;;;;;;;;;;;;;;;0.40;100.00;99067.00;4915950;29;19939;-72
2022/12/16 01:58:48;;;;;;;;;;;;;;;0.44;100.00;99071.34;4920687;29;19915;-72
2022/12/16 02:01:14;;;;;;;;;;;;;;;0.47;99.89;99076.56;4966479;28;20374;-72
2022/12/16 02:03:41;;;;;;;;;;;;;;;0.43;100.00;99075.72;4932870;29;20326;-72
2022/12/16 02:06:06;;;;;;;;;;;;;;;0.42;99.94;99080.94;4934597;29;19914;-72
2022/12/16 02:08:31;;;;;;;;;;;;;;;0.40;99.95;99080.09;4967978;28;19978;-72
2022/12/16 02:11:00;;;;;;;;;;;;;;;0.40;99.82;99085.31;4934830;29;20396;-72
2022/12/16 02:13:32;;;;;;;;;;;;;;;0.39;99.82;99079.25;4934415;29;19961;-72
2022/12/16 02:16:03;;;;;;;;;;;;;;;0.42;99.96;99089.69;4935480;29;20361;-72
2022/12/16 02:18:28;;;;;;;;;;;;;;;0.46;99.97;99088.75;4953472;29;20280;-72
2022/12/16 02:21:09;;;;;;;;;;;;;;;0.51;100.00;99083.50;4952348;29;19914;-72
2022/12/16 02:23:37;;;;;;;;;;;;;;;0.48;100.00;99086.16;4916924;29;19965;-72
2022/12/16 02:26:21;;;;;;;;;;;;;;;0.41;100.00;99094.91;4915556;29;20005;-72
2022/12/16 02:28:49;;;;;;;;;;;;;;;0.39;100.00;99086.22;4960627;28;20025;-72
2022/12/16 02:31:18;;;;;;;;;;;;;;;0.38;100.00;99093.19;4934342;29;19911;-72
2022/12/16 02:33:50;;;;;;;;;;;;;;;0.39;100.00;99091.44;4936353;29;20409;-72
2022/12/16 02:36:15;;;;;;;;;;;;;;;0.44;100.00;99087.94;4934492;29;20409;-72
2022/12/16 02:38:40;;;;;;;;;;;;;;;0.51;100.00;99104.44;4964369;28;19915;-72
2022/12/16 02:41:10;;;;;;;;;;;;;;;0.54;100.00;99105.28;4935548;29;19918;-72
2022/12/16 02:43:47;;;;;;;;;;;;;;;0.46;100.00;99107.06;4933347;29;19939;-72
2022/12/16 02:46:13;;;;;;;;;;;;;;;0.44;99.92;99105.34;4938336;29;19925;-71
2022/12/16 02:48:38;;;;;;;;;;;;;;;0.37;100.00;99108.88;4952481;29;19914;-72
2022/12/16 02:51:03;;;;;;;;;;;;;;;0.40;100.00;99106.25;4952478;29;20714;-71
2022/12/16 02:53:30;;;;;;;;;;;;;;;0.41;99.76;99108.00;4936313;29;20001;-72
2022/12/16 02:56:04;;;;;;;;;;;;;;;0.42;100.00;99114.94;4934209;29;20334;-71
2022/12/16 02:58:48;;;;;;;;;;;;;;;0.43;99.96;99116.72;4966759;28;19920;-71
2022/12/16 03:01:31;;;;;;;;;;;;;;;0.50;99.98;99128.84;4933977;29;19917;-71
2022/12/16 03:03:56;;;;;;;;;;;;;;;0.53;99.43;99126.22;4934785;29;20032;-72
2022/12/16 03:06:22;;;;;;;;;;;;;;;0.47;99.21;99128.88;4934275;29;19958;-71
2022/12/16 03:08:50;;;;;;;;;;;;;;;0.46;98.80;99132.38;4964569;28;19919;-71
2022/12/16 03:11:16;;;;;;;;;;;;;;;0.42;97.38;99130.66;4945026;29;20017;-71
2022/12/16 03:13:43;;;;;;;;;;;;;;;0.37;97.05;99135.03;4933760;29;19954;-71
2022/12/16 03:16:11;;;;;;;;;;;;;;;0.43;97.12;99132.41;4936141;29;19926;-71
2022/12/16 03:18:39;;;;;;;;;;;;;;;0.42;97.11;99136.75;4933359;29;20034;-71
2022/12/16 03:21:06;;;;;;;;;;;;;;;0.38;95.68;99139.41;4933856;29;20009;-71
2022/12/16 03:23:54;;;;;;;;;;;;;;;0.38;95.50;99136.78;4936276;29;20030;-72
2022/12/16 03:26:23;;;;;;;;;;;;;;;0.38;94.57;99142.88;4928234;29;19914;-71
2022/12/16 03:28:59;;;;;;;;;;;;;;;0.39;94.32;99142.00;4935791;29;19918;-71
2022/12/16 03:31:37;;;;;;;;;;;;;;;0.36;93.34;99147.25;4933942;29;19964;-71
2022/12/16 03:34:05;;;;;;;;;;;;;;;0.34;92.69;99151.63;4933913;29;20049;-71
2022/12/16 03:36:34;;;;;;;;;;;;;;;0.37;92.67;99151.59;4931466;29;20341;-72
2022/12/16 03:39:00;;;;;;;;;;;;;;;0.33;92.23;99154.25;4936579;29;19918;-71
2022/12/16 03:41:27;;;;;;;;;;;;;;;0.31;91.67;99149.03;4935945;29;19910;-71
2022/12/16 03:43:52;;;;;;;;;;;;;;;0.29;90.90;99149.91;4939396;29;19911;-71
2022/12/16 03:46:17;;;;;;;;;;;;;;;0.30;90.92;99162.13;4937295;29;19918;-71
2022/12/16 03:48:48;;;;;;;;;;;;;;;0.32;91.61;99150.75;4967705;28;20381;-71
2022/12/16 03:51:14;;;;;;;;;;;;;;;0.34;90.74;99158.59;4937030;29;20298;-70
2022/12/16 03:53:40;;;;;;;;;;;;;;;0.32;90.62;99152.50;4970153;28;20374;-71
2022/12/16 03:56:05;;;;;;;;;;;;;;;0.33;90.48;99160.34;4936987;29;19927;-71
2022/12/16 03:58:31;;;;;;;;;;;;;;;0.35;90.05;99165.56;4936659;29;19910;-71
2022/12/16 04:00:56;;;;;;;;;;;;;;;0.31;89.70;99161.22;4936717;29;19946;-71
2022/12/16 04:03:25;;;;;;;;;;;;;;;0.33;90.69;99162.94;4938583;29;20389;-71
2022/12/16 04:05:50;;;;;;;;;;;;;;;0.38;89.55;99165.56;4935625;29;19910;-71
2022/12/16 04:08:15;;;;;;;;;;;;;;;0.40;90.33;99172.50;4935464;29;19938;-71
2022/12/16 04:24:29;;;;;;;;;;;;;;;0.34;89.00;99201.31;4955827;29;20334;-70
2022/12/16 04:30:17;;;;;;;;;;;;;;;0.26;88.47;99202.22;4947377;29;20005;-71
2022/12/16 04:32:23;;;;;;;;;;;;;;;0.23;88.88;99202.25;4936496;28;19911;-71
2022/12/16 04:34:48;;;;;;;;;;;;;;;0.22;88.22;99201.38;4938064;29;20012;-71
